sensor_id;sensor_type;location;lat;lon;timestamp;pressure;altitude;pressure_sealevel;temperature;humidity
6132;BME280;3097;42.692;23.278;2023-02-28T00:01:32;95442.19;;;9.14;98.97
6132;BME280;3097;42.692;23.278;2023-02-28T00:03:57;95402.84;;;8.93;98.53
6132;BME280;3097;42.692;23.278;2023-02-28T00:06:23;95459.59;;;9.25;98.46
6132;BME280;3097;42.692;23.278;2023-02-28T00:08:49;95460.97;;;9.27;98.27
6132;BME280;3097;42.692;23.278;2023-02-28T00:11:15;95470.28;;;9.22;98.36
6132;BME280;3097;42.692;23.278;2023-02-28T00:13:43;95465.75;;;9.30;98.19
6132;BME280;3097;42.692;23.278;2023-02-28T00:16:14;95462.16;;;9.25;97.88
6132;BME280;3097;42.692;23.278;2023-02-28T00:18:41;95472.47;;;9.38;97.72
6132;BME280;3097;42.692;23.278;2023-02-28T00:21:06;95474.44;;;9.36;97.54
6132;BME280;3097;42.692;23.278;2023-02-28T00:23:33;95476.81;;;9.18;97.66
6132;BME280;3097;42.692;23.278;2023-02-28T00:25:59;95487.50;;;9.28;97.12
6132;BME280;3097;42.692;23.278;2023-02-28T00:28:25;95492.03;;;9.32;97.02
6132;BME280;3097;42.692;23.278;2023-02-28T00:30:50;95487.31;;;9.16;97.41
6132;BME280;3097;42.692;23.278;2023-02-28T00:33:16;95484.31;;;9.06;97.74
6132;BME280;3097;42.692;23.278;2023-02-28T00:35:42;95480.38;;;9.17;97.43
6132;BME280;3097;42.692;23.278;2023-02-28T00:38:07;95481.19;;;9.24;97.78
6132;BME280;3097;42.692;23.278;2023-02-28T00:40:33;95485.31;;;9.25;97.72
6132;BME280;3097;42.692;23.278;2023-02-28T00:42:58;95496.63;;;9.24;98.07
6132;BME280;3097;42.692;23.278;2023-02-28T00:45:23;95483.53;;;9.25;97.94
6132;BME280;3097;42.692;23.278;2023-02-28T00:47:49;95486.69;;;9.27;97.29
6132;BME280;3097;42.692;23.278;2023-02-28T00:50:17;95481.94;;;9.18;96.84
6132;BME280;3097;42.692;23.278;2023-02-28T00:52:42;95480.34;;;8.97;96.67
6132;BME280;3097;42.692;23.278;2023-02-28T00:55:10;95481.94;;;8.98;97.01
6132;BME280;3097;42.692;23.278;2023-02-28T00:57:35;95426.91;;;8.66;96.94
6132;BME280;3097;42.692;23.278;2023-02-28T01:00:01;95471.66;;;9.05;97.02
6132;BME280;3097;42.692;23.278;2023-02-28T01:02:27;95474.84;;;9.07;96.95
6132;BME280;3097;42.692;23.278;2023-02-28T01:04:52;95477.22;;;9.02;96.79
6132;BME280;3097;42.692;23.278;2023-02-28T01:07:18;95470.25;;;8.96;97.04
6132;BME280;3097;42.692;23.278;2023-02-28T01:09:43;95475.63;;;8.94;96.95
6132;BME280;3097;42.692;23.278;2023-02-28T01:12:09;95480.94;;;8.86;96.77
6132;BME280;3097;42.692;23.278;2023-02-28T01:14:35;95457.19;;;8.71;96.75
6132;BME280;3097;42.692;23.278;2023-02-28T01:17:00;95471.03;;;8.76;96.10
6132;BME280;3097;42.692;23.278;2023-02-28T01:19:26;95482.91;;;8.84;95.48
6132;BME280;3097;42.692;23.278;2023-02-28T01:21:51;95479.13;;;8.80;94.67
6132;BME280;3097;42.692;23.278;2023-02-28T01:24:17;95468.25;;;8.71;94.41
6132;BME280;3097;42.692;23.278;2023-02-28T01:26:42;95441.31;;;8.47;94.15
6132;BME280;3097;42.692;23.278;2023-02-28T01:29:08;95476.94;;;8.64;94.26
6132;BME280;3097;42.692;23.278;2023-02-28T01:31:33;95429.16;;;8.28;94.32
6132;BME280;3097;42.692;23.278;2023-02-28T01:33:59;95473.56;;;8.57;94.71
6132;BME280;3097;42.692;23.278;2023-02-28T01:36:25;95437.91;;;8.34;94.68
6132;BME280;3097;42.692;23.278;2023-02-28T01:38:51;95472.56;;;8.58;94.66
6132;BME280;3097;42.692;23.278;2023-02-28T01:41:20;95481.06;;;8.58;94.50
6132;BME280;3097;42.692;23.278;2023-02-28T01:46:12;95487.72;;;8.39;95.20
6132;BME280;3097;42.692;23.278;2023-02-28T01:49:03;95474.47;;;8.36;95.54
6132;BME280;3097;42.692;23.278;2023-02-28T01:51:31;95480.63;;;8.41;95.61
6132;BME280;3097;42.692;23.278;2023-02-28T01:54:02;95425.94;;;8.06;95.69
6132;BME280;3097;42.692;23.278;2023-02-28T01:56:33;95478.63;;;8.37;95.71
6132;BME280;3097;42.692;23.278;2023-02-28T01:59:01;95472.28;;;8.33;95.54
6132;BME280;3097;42.692;23.278;2023-02-28T02:01:27;95480.81;;;8.40;95.71
6132;BME280;3097;42.692;23.278;2023-02-28T02:03:56;95474.88;;;8.39;96.13
6132;BME280;3097;42.692;23.278;2023-02-28T02:06:29;95462.75;;;8.27;95.69
6132;BME280;3097;42.692;23.278;2023-02-28T02:09:04;95456.03;;;8.26;95.98
6132;BME280;3097;42.692;23.278;2023-02-28T02:11:30;95451.25;;;8.16;95.71
6132;BME280;3097;42.692;23.278;2023-02-28T02:14:03;95477.81;;;8.36;95.72
6132;BME280;3097;42.692;23.278;2023-02-28T02:31:04;95468.34;;;8.37;96.53
6132;BME280;3097;42.692;23.278;2023-02-28T02:36:39;95434.53;;;7.86;97.13
6132;BME280;3097;42.692;23.278;2023-02-28T02:39:34;95467.44;;;8.16;97.09
6132;BME280;3097;42.692;23.278;2023-02-28T02:42:04;95478.19;;;8.27;97.13
6132;BME280;3097;42.692;23.278;2023-02-28T02:44:53;95481.97;;;8.31;96.83
6132;BME280;3097;42.692;23.278;2023-02-28T02:47:24;95488.69;;;8.32;96.86
6132;BME280;3097;42.692;23.278;2023-02-28T02:49:55;95480.97;;;8.32;96.96
6132;BME280;3097;42.692;23.278;2023-02-28T02:52:34;95478.56;;;8.30;97.22
6132;BME280;3097;42.692;23.278;2023-02-28T02:55:02;95452.00;;;8.03;96.87
6132;BME280;3097;42.692;23.278;2023-02-28T02:57:36;95470.84;;;8.24;96.95
6132;BME280;3097;42.692;23.278;2023-02-28T03:00:05;95485.72;;;8.35;96.39
6132;BME280;3097;42.692;23.278;2023-02-28T03:02:34;95497.13;;;8.26;96.98
6132;BME280;3097;42.692;23.278;2023-02-28T03:05:05;95483.53;;;8.32;96.78
6132;BME280;3097;42.692;23.278;2023-02-28T03:07:31;95497.13;;;8.26;96.50
6132;BME280;3097;42.692;23.278;2023-02-28T03:09:57;95489.28;;;8.34;96.79
6132;BME280;3097;42.692;23.278;2023-02-28T03:12:51;95508.59;;;8.30;96.96
6132;BME280;3097;42.692;23.278;2023-02-28T03:15:26;95508.66;;;8.36;96.23
6132;BME280;3097;42.692;23.278;2023-02-28T03:23:01;95517.84;;;8.24;96.01
6132;BME280;3097;42.692;23.278;2023-02-28T03:25:33;95493.13;;;8.16;95.98
6132;BME280;3097;42.692;23.278;2023-02-28T03:30:49;95517.56;;;8.40;95.74
6132;BME280;3097;42.692;23.278;2023-02-28T03:33:23;95522.91;;;8.39;96.09
6132;BME280;3097;42.692;23.278;2023-02-28T03:35:56;95516.94;;;8.32;96.09
6132;BME280;3097;42.692;23.278;2023-02-28T03:38:31;95519.56;;;8.45;95.88
6132;BME280;3097;42.692;23.278;2023-02-28T03:41:19;95528.22;;;8.37;96.15
6132;BME280;3097;42.692;23.278;2023-02-28T03:43:58;95536.72;;;8.38;96.65
6132;BME280;3097;42.692;23.278;2023-02-28T03:46:27;95531.22;;;8.41;96.43
6132;BME280;3097;42.692;23.278;2023-02-28T03:49:02;95531.19;;;8.34;96.89
6132;BME280;3097;42.692;23.278;2023-02-28T03:51:31;95540.28;;;8.37;97.13
6132;BME280;3097;42.692;23.278;2023-02-28T03:54:02;95535.16;;;8.43;97.12
6132;BME280;3097;42.692;23.278;2023-02-28T03:56:33;95537.50;;;8.38;96.84
6132;BME280;3097;42.692;23.278;2023-02-28T04:01:37;95540.28;;;8.37;97.41
6132;BME280;3097;42.692;23.278;2023-02-28T04:04:03;95538.94;;;8.47;97.31
6132;BME280;3097;42.692;23.278;2023-02-28T04:06:32;95540.94;;;8.52;97.07
6132;BME280;3097;42.692;23.278;2023-02-28T04:08:57;95517.16;;;8.37;96.80
6132;BME280;3097;42.692;23.278;2023-02-28T04:11:32;95536.78;;;8.51;96.62
6132;BME280;3097;42.692;23.278;2023-02-28T04:14:00;95533.97;;;8.39;96.85
6132;BME280;3097;42.692;23.278;2023-02-28T04:16:25;95535.59;;;8.47;96.47
6132;BME280;3097;42.692;23.278;2023-02-28T04:18:51;95529.66;;;8.46;96.34
6132;BME280;3097;42.692;23.278;2023-02-28T04:21:16;95538.34;;;8.45;96.58
6132;BME280;3097;42.692;23.278;2023-02-28T04:23:46;95530.00;;;8.37;97.09
6132;BME280;3097;42.692;23.278;2023-02-28T04:26:11;95533.94;;;8.33;96.84
6132;BME280;3097;42.692;23.278;2023-02-28T04:28:38;95524.78;;;8.24;96.98
6132;BME280;3097;42.692;23.278;2023-02-28T04:31:04;95535.56;;;8.40;97.25
6132;BME280;3097;42.692;23.278;2023-02-28T04:33:31;95529.63;;;8.40;97.01
6132;BME280;3097;42.692;23.278;2023-02-28T04:36:02;95534.34;;;8.36;96.52
6132;BME280;3097;42.692;23.278;2023-02-28T04:38:30;95542.03;;;8.36;96.56
6132;BME280;3097;42.692;23.278;2023-02-28T04:40:58;95539.47;;;8.36;95.71
6132;BME280;3097;42.692;23.278;2023-02-28T04:43:25;95539.66;;;8.35;95.98
6132;BME280;3097;42.692;23.278;2023-02-28T04:45:51;95550.19;;;8.40;96.00
6132;BME280;3097;42.692;23.278;2023-02-28T04:48:16;95552.09;;;8.31;96.36
6132;BME280;3097;42.692;23.278;2023-02-28T04:50:42;95558.25;;;8.37;96.25
6132;BME280;3097;42.692;23.278;2023-02-28T04:53:07;95567.56;;;8.44;95.96
6132;BME280;3097;42.692;23.278;2023-02-28T04:55:33;95555.69;;;8.37;96.04
6132;BME280;3097;42.692;23.278;2023-02-28T04:57:59;95569.09;;;8.32;96.24
6132;BME280;3097;42.692;23.278;2023-02-28T05:00:25;95530.81;;;8.09;95.53
6132;BME280;3097;42.692;23.278;2023-02-28T05:02:50;95534.84;;;8.19;95.21
6132;BME280;3097;42.692;23.278;2023-02-28T05:05:16;95565.59;;;8.40;95.25
6132;BME280;3097;42.692;23.278;2023-02-28T05:07:44;95435.91;;;7.54;95.57
6132;BME280;3097;42.692;23.278;2023-02-28T05:10:10;95548.25;;;8.21;95.85
6132;BME280;3097;42.692;23.278;2023-02-28T05:12:35;95454.38;;;7.70;95.40
6132;BME280;3097;42.692;23.278;2023-02-28T05:15:01;95563.38;;;8.37;95.96
6132;BME280;3097;42.692;23.278;2023-02-28T05:17:27;95537.97;;;8.21;96.23
6132;BME280;3097;42.692;23.278;2023-02-28T05:19:53;95565.78;;;8.38;96.42
6132;BME280;3097;42.692;23.278;2023-02-28T05:22:19;95568.56;;;8.43;96.88
6132;BME280;3097;42.692;23.278;2023-02-28T05:24:44;95542.06;;;8.08;97.21
6132;BME280;3097;42.692;23.278;2023-02-28T05:27:10;95571.75;;;8.18;97.61
6132;BME280;3097;42.692;23.278;2023-02-28T05:29:36;95588.06;;;8.31;97.72
6132;BME280;3097;42.692;23.278;2023-02-28T05:32:09;95588.09;;;8.38;97.68
6132;BME280;3097;42.692;23.278;2023-02-28T05:34:36;95590.06;;;8.36;97.65
6132;BME280;3097;42.692;23.278;2023-02-28T05:37:01;95590.31;;;8.41;97.49
6132;BME280;3097;42.692;23.278;2023-02-28T05:39:27;95590.53;;;8.52;96.80
6132;BME280;3097;42.692;23.278;2023-02-28T05:41:52;95581.00;;;8.40;96.72
6132;BME280;3097;42.692;23.278;2023-02-28T05:44:18;95596.25;;;8.48;97.15
6132;BME280;3097;42.692;23.278;2023-02-28T05:46:43;95597.84;;;8.49;97.04
6132;BME280;3097;42.692;23.278;2023-02-28T05:49:09;95605.97;;;8.52;97.01
6132;BME280;3097;42.692;23.278;2023-02-28T05:51:34;95599.41;;;8.50;97.02
6132;BME280;3097;42.692;23.278;2023-02-28T05:54:01;95604.75;;;8.48;97.40
6132;BME280;3097;42.692;23.278;2023-02-28T05:56:27;95569.03;;;8.26;97.23
6132;BME280;3097;42.692;23.278;2023-02-28T05:58:53;95592.09;;;8.47;97.17
6132;BME280;3097;42.692;23.278;2023-02-28T06:04:06;95610.72;;;8.56;96.79
6132;BME280;3097;42.692;23.278;2023-02-28T06:06:32;95609.53;;;8.58;96.85
6132;BME280;3097;42.692;23.278;2023-02-28T06:09:03;95604.63;;;8.63;96.80
6132;BME280;3097;42.692;23.278;2023-02-28T06:11:28;95598.13;;;8.67;96.39
6132;BME280;3097;42.692;23.278;2023-02-28T06:13:55;95567.38;;;8.46;96.84
6132;BME280;3097;42.692;23.278;2023-02-28T06:16:22;95599.53;;;8.70;96.86
6132;BME280;3097;42.692;23.278;2023-02-28T06:18:48;95603.88;;;8.69;96.93
6132;BME280;3097;42.692;23.278;2023-02-28T06:21:13;95598.94;;;8.74;97.03
6132;BME280;3097;42.692;23.278;2023-02-28T06:23:39;95606.50;;;8.82;96.80
6132;BME280;3097;42.692;23.278;2023-02-28T06:26:04;95604.91;;;8.81;96.70
6132;BME280;3097;42.692;23.278;2023-02-28T06:28:30;95580.34;;;8.72;96.51
6132;BME280;3097;42.692;23.278;2023-02-28T06:30:55;95601.34;;;8.82;96.58
6132;BME280;3097;42.692;23.278;2023-02-28T06:33:21;95612.22;;;8.78;96.41
6132;BME280;3097;42.692;23.278;2023-02-28T06:35:49;95615.94;;;8.69;96.74
6132;BME280;3097;42.692;23.278;2023-02-28T06:38:15;95621.91;;;8.82;96.97
6132;BME280;3097;42.692;23.278;2023-02-28T06:40:40;95617.41;;;8.91;96.58
6132;BME280;3097;42.692;23.278;2023-02-28T06:43:06;95634.22;;;8.93;96.25
6132;BME280;3097;42.692;23.278;2023-02-28T06:45:32;95627.91;;;8.96;95.95
6132;BME280;3097;42.692;23.278;2023-02-28T06:47:57;95625.56;;;9.01;95.85
6132;BME280;3097;42.692;23.278;2023-02-28T06:50:23;95571.22;;;8.63;95.49
6132;BME280;3097;42.692;23.278;2023-02-28T06:52:49;95617.25;;;8.99;94.83
6132;BME280;3097;42.692;23.278;2023-02-28T06:55:19;95627.34;;;9.01;94.95
6132;BME280;3097;42.692;23.278;2023-02-28T06:57:44;95630.28;;;8.98;95.30
6132;BME280;3097;42.692;23.278;2023-02-28T07:00:10;95625.56;;;9.01;95.13
6132;BME280;3097;42.692;23.278;2023-02-28T07:02:36;95628.34;;;9.06;95.11
6132;BME280;3097;42.692;23.278;2023-02-28T07:05:03;95620.41;;;9.01;95.20
6132;BME280;3097;42.692;23.278;2023-02-28T07:07:29;95626.75;;;9.12;95.08
6132;BME280;3097;42.692;23.278;2023-02-28T07:09:55;95629.16;;;9.13;95.17
6132;BME280;3097;42.692;23.278;2023-02-28T07:12:20;95628.19;;;9.21;94.92
6132;BME280;3097;42.692;23.278;2023-02-28T07:14:46;95629.75;;;9.15;95.35
6132;BME280;3097;42.692;23.278;2023-02-28T07:17:11;95629.97;;;9.20;95.28
6132;BME280;3097;42.692;23.278;2023-02-28T07:19:40;95628.19;;;9.21;95.14
6132;BME280;3097;42.692;23.278;2023-02-28T07:22:06;95639.06;;;9.23;95.38
6132;BME280;3097;42.692;23.278;2023-02-28T07:24:32;95628.81;;;9.29;95.10
6132;BME280;3097;42.692;23.278;2023-02-28T07:26:57;95634.31;;;9.26;94.91
6132;BME280;3097;42.692;23.278;2023-02-28T07:29:23;95624.84;;;9.27;95.17
6132;BME280;3097;42.692;23.278;2023-02-28T07:31:48;95633.09;;;9.09;95.86
6132;BME280;3097;42.692;23.278;2023-02-28T07:34:15;95586.75;;;8.96;95.15
6132;BME280;3097;42.692;23.278;2023-02-28T07:36:41;95624.81;;;9.14;95.27
6132;BME280;3097;42.692;23.278;2023-02-28T07:39:06;95628.78;;;9.16;95.64
6132;BME280;3097;42.692;23.278;2023-02-28T07:41:34;95634.31;;;9.20;95.44
6132;BME280;3097;42.692;23.278;2023-02-28T07:44:02;95639.44;;;9.20;95.43
6132;BME280;3097;42.692;23.278;2023-02-28T07:46:28;95641.66;;;9.23;95.49
6132;BME280;3097;42.692;23.278;2023-02-28T07:49:00;95637.09;;;9.25;95.21
6132;BME280;3097;42.692;23.278;2023-02-28T07:51:25;95631.56;;;9.28;94.97
6132;BME280;3097;42.692;23.278;2023-02-28T07:53:51;95623.66;;;9.23;95.54
6132;BME280;3097;42.692;23.278;2023-02-28T07:56:16;95624.44;;;9.23;95.37
6132;BME280;3097;42.692;23.278;2023-02-28T07:58:42;95628.00;;;9.29;95.62
6132;BME280;3097;42.692;23.278;2023-02-28T08:01:08;95624.22;;;9.25;96.08
6132;BME280;3097;42.692;23.278;2023-02-28T08:03:35;95625.25;;;9.30;96.56
6132;BME280;3097;42.692;23.278;2023-02-28T08:06:06;95619.31;;;9.43;96.48
6132;BME280;3097;42.692;23.278;2023-02-28T08:08:31;95627.06;;;9.50;96.22
6132;BME280;3097;42.692;23.278;2023-02-28T08:11:01;95629.44;;;9.58;95.39
6132;BME280;3097;42.692;23.278;2023-02-28T08:13:28;95626.69;;;9.66;95.35
6132;BME280;3097;42.692;23.278;2023-02-28T08:15:54;95630.47;;;9.77;94.84
6132;BME280;3097;42.692;23.278;2023-02-28T08:18:20;95620.97;;;9.84;94.32
6132;BME280;3097;42.692;23.278;2023-02-28T08:20:45;95628.69;;;9.84;94.47
6132;BME280;3097;42.692;23.278;2023-02-28T08:23:11;95632.44;;;9.94;94.32
6132;BME280;3097;42.692;23.278;2023-02-28T08:25:36;95635.22;;;9.93;93.83
6132;BME280;3097;42.692;23.278;2023-02-28T08:28:02;95636.41;;;9.90;93.40
6132;BME280;3097;42.692;23.278;2023-02-28T08:30:27;95636.00;;;9.87;93.46
6132;BME280;3097;42.692;23.278;2023-02-28T08:32:53;95635.44;;;9.85;93.89
6132;BME280;3097;42.692;23.278;2023-02-28T08:35:19;95641.94;;;9.94;94.39
6132;BME280;3097;42.692;23.278;2023-02-28T08:37:47;95637.22;;;9.91;95.18
6132;BME280;3097;42.692;23.278;2023-02-28T08:40:13;95636.00;;;9.93;95.00
6132;BME280;3097;42.692;23.278;2023-02-28T08:42:46;95636.22;;;9.98;95.09
6132;BME280;3097;42.692;23.278;2023-02-28T08:45:14;95613.63;;;9.74;94.61
6132;BME280;3097;42.692;23.278;2023-02-28T08:47:40;95637.59;;;9.81;94.41
6132;BME280;3097;42.692;23.278;2023-02-28T08:50:06;95633.84;;;9.84;95.04
6132;BME280;3097;42.692;23.278;2023-02-28T08:52:31;95629.69;;;9.89;94.73
6132;BME280;3097;42.692;23.278;2023-02-28T08:54:57;95640.34;;;9.86;94.87
6132;BME280;3097;42.692;23.278;2023-02-28T08:57:23;95576.56;;;9.42;94.84
6132;BME280;3097;42.692;23.278;2023-02-28T08:59:51;95649.47;;;9.82;94.83
6132;BME280;3097;42.692;23.278;2023-02-28T09:02:16;95639.19;;;9.89;95.15
6132;BME280;3097;42.692;23.278;2023-02-28T09:04:42;95641.56;;;9.84;95.35
6132;BME280;3097;42.692;23.278;2023-02-28T09:07:10;95639.19;;;9.89;95.08
6132;BME280;3097;42.692;23.278;2023-02-28T09:09:36;95639.00;;;9.97;94.81
6132;BME280;3097;42.692;23.278;2023-02-28T09:12:01;95636.59;;;10.02;94.59
6132;BME280;3097;42.692;23.278;2023-02-28T09:14:27;95641.75;;;10.08;94.32
6132;BME280;3097;42.692;23.278;2023-02-28T09:16:53;95634.03;;;10.08;94.64
6132;BME280;3097;42.692;23.278;2023-02-28T09:19:18;95636.03;;;10.06;94.53
6132;BME280;3097;42.692;23.278;2023-02-28T09:21:43;95639.19;;;10.02;94.58
6132;BME280;3097;42.692;23.278;2023-02-28T09:24:09;95638.56;;;10.00;94.72
6132;BME280;3097;42.692;23.278;2023-02-28T09:26:37;95606.88;;;9.93;94.86
6132;BME280;3097;42.692;23.278;2023-02-28T09:29:02;95632.06;;;10.17;94.30
6132;BME280;3097;42.692;23.278;2023-02-28T09:31:28;95633.03;;;10.23;94.50
6132;BME280;3097;42.692;23.278;2023-02-28T09:33:56;95630.88;;;10.33;94.29
6132;BME280;3097;42.692;23.278;2023-02-28T09:36:23;95624.09;;;10.38;94.06
6132;BME280;3097;42.692;23.278;2023-02-28T09:38:49;95628.28;;;10.39;94.35
6132;BME280;3097;42.692;23.278;2023-02-28T09:41:23;95622.72;;;10.42;94.29
6132;BME280;3097;42.692;23.278;2023-02-28T09:43:53;95630.81;;;10.53;93.64
6132;BME280;3097;42.692;23.278;2023-02-28T09:46:54;95626.47;;;10.60;94.14
6132;BME280;3097;42.692;23.278;2023-02-28T09:49:26;95620.06;;;10.69;93.84
6132;BME280;3097;42.692;23.278;2023-02-28T09:52:02;95621.47;;;10.71;93.78
6132;BME280;3097;42.692;23.278;2023-02-28T09:54:30;95612.72;;;10.79;93.27
6132;BME280;3097;42.692;23.278;2023-02-28T09:57:01;95613.47;;;10.86;92.92
6132;BME280;3097;42.692;23.278;2023-02-28T10:05:19;95604.84;;;11.12;92.17
6132;BME280;3097;42.692;23.278;2023-02-28T10:08:14;95610.38;;;11.15;90.96
6132;BME280;3097;42.692;23.278;2023-02-28T10:10:47;95593.13;;;11.09;91.75
6132;BME280;3097;42.692;23.278;2023-02-28T10:13:22;95595.63;;;11.22;92.05
6132;BME280;3097;42.692;23.278;2023-02-28T10:15:52;95597.31;;;11.42;91.39
6132;BME280;3097;42.692;23.278;2023-02-28T10:18:24;95583.59;;;11.48;91.14
6132;BME280;3097;42.692;23.278;2023-02-28T10:20:53;95586.75;;;11.50;91.76
6132;BME280;3097;42.692;23.278;2023-02-28T10:23:28;95582.16;;;11.52;91.35
6132;BME280;3097;42.692;23.278;2023-02-28T10:26:05;95575.72;;;11.61;90.81
6132;BME280;3097;42.692;23.278;2023-02-28T10:28:35;95570.72;;;11.66;90.80
6132;BME280;3097;42.692;23.278;2023-02-28T10:31:00;95575.06;;;11.72;87.71
6132;BME280;3097;42.692;23.278;2023-02-28T10:33:30;95561.50;;;11.52;89.10
6132;BME280;3097;42.692;23.278;2023-02-28T10:35:57;95554.47;;;11.59;89.24
6132;BME280;3097;42.692;23.278;2023-02-28T10:38:28;95559.91;;;11.82;88.95
6132;BME280;3097;42.692;23.278;2023-02-28T10:43:29;95535.16;;;11.68;86.97
6132;BME280;3097;42.692;23.278;2023-02-28T10:46:09;95538.09;;;11.96;84.95
6132;BME280;3097;42.692;23.278;2023-02-28T10:51:10;95540.13;;;12.13;85.63
6132;BME280;3097;42.692;23.278;2023-02-28T10:53:51;95514.56;;;11.86;83.10
6132;BME280;3097;42.692;23.278;2023-02-28T10:56:22;95526.78;;;11.97;84.12
6132;BME280;3097;42.692;23.278;2023-02-28T10:58:59;95522.06;;;12.13;82.43
6132;BME280;3097;42.692;23.278;2023-02-28T11:04:00;95519.47;;;12.13;82.80
6132;BME280;3097;42.692;23.278;2023-02-28T11:06:29;95514.28;;;12.13;82.54
6132;BME280;3097;42.692;23.278;2023-02-28T11:08:58;95504.97;;;11.93;83.62
6132;BME280;3097;42.692;23.278;2023-02-28T11:11:27;95506.03;;;11.86;84.11
6132;BME280;3097;42.692;23.278;2023-02-28T11:13:56;95484.94;;;11.64;83.82
6132;BME280;3097;42.692;23.278;2023-02-28T11:16:32;95510.19;;;11.87;82.95
6132;BME280;3097;42.692;23.278;2023-02-28T11:18:58;95490.16;;;11.82;82.99
6132;BME280;3097;42.692;23.278;2023-02-28T11:21:52;95492.72;;;11.82;82.51
6132;BME280;3097;42.692;23.278;2023-02-28T11:26:52;95387.13;;;11.06;83.02
6132;BME280;3097;42.692;23.278;2023-02-28T11:34:38;95495.94;;;11.53;83.60
6132;BME280;3097;42.692;23.278;2023-02-28T11:37:09;95490.41;;;11.74;83.12
6132;BME280;3097;42.692;23.278;2023-02-28T11:39:36;95491.22;;;11.75;82.79
6132;BME280;3097;42.692;23.278;2023-02-28T11:57:52;95495.84;;;11.91;81.84
6132;BME280;3097;42.692;23.278;2023-02-28T12:11:52;95486.44;;;12.15;80.17
6132;BME280;3097;42.692;23.278;2023-02-28T12:17:24;95478.69;;;12.15;80.67
6132;BME280;3097;42.692;23.278;2023-02-28T12:25:32;95473.81;;;12.25;79.86
6132;BME280;3097;42.692;23.278;2023-02-28T12:28:02;95483.56;;;12.41;78.45
6132;BME280;3097;42.692;23.278;2023-02-28T12:30:34;95481.13;;;12.28;77.76
6132;BME280;3097;42.692;23.278;2023-02-28T12:33:07;95475.91;;;12.16;79.43
6132;BME280;3097;42.692;23.278;2023-02-28T12:35:56;95465.19;;;12.13;78.70
6132;BME280;3097;42.692;23.278;2023-02-28T12:38:25;95470.38;;;12.31;79.06
6132;BME280;3097;42.692;23.278;2023-02-28T12:41:37;95437.41;;;12.26;77.98
6132;BME280;3097;42.692;23.278;2023-02-28T12:44:30;95462.03;;;12.47;76.92
6132;BME280;3097;42.692;23.278;2023-02-28T12:47:00;95445.38;;;12.25;77.63
6132;BME280;3097;42.692;23.278;2023-02-28T12:49:34;95467.50;;;12.39;77.02
6132;BME280;3097;42.692;23.278;2023-02-28T12:52:03;95460.72;;;12.38;77.52
6132;BME280;3097;42.692;23.278;2023-02-28T12:54:53;95462.44;;;12.44;76.58
6132;BME280;3097;42.692;23.278;2023-02-28T12:57:34;95470.91;;;12.51;75.40
6132;BME280;3097;42.692;23.278;2023-02-28T13:00:19;95461.59;;;12.32;76.27
6132;BME280;3097;42.692;23.278;2023-02-28T13:02:52;95463.44;;;12.43;76.06
6132;BME280;3097;42.692;23.278;2023-02-28T13:08:21;95454.84;;;12.31;75.62
6132;BME280;3097;42.692;23.278;2023-02-28T13:10:50;95460.59;;;12.15;76.59
6132;BME280;3097;42.692;23.278;2023-02-28T13:13:25;95449.91;;;11.93;77.03
6132;BME280;3097;42.692;23.278;2023-02-28T13:16:03;95464.13;;;11.84;77.65
6132;BME280;3097;42.692;23.278;2023-02-28T13:18:52;95459.31;;;11.87;77.76
6132;BME280;3097;42.692;23.278;2023-02-28T13:21:28;95454.97;;;11.81;77.86
6132;BME280;3097;42.692;23.278;2023-02-28T13:34:27;95458.47;;;11.93;76.82
6132;BME280;3097;42.692;23.278;2023-02-28T13:40:39;95434.47;;;12.05;76.00
6132;BME280;3097;42.692;23.278;2023-02-28T13:42:49;95440.78;;;11.90;77.42
6132;BME280;3097;42.692;23.278;2023-02-28T13:45:27;95442.16;;;11.93;77.61
6132;BME280;3097;42.692;23.278;2023-02-28T13:59:06;95431.09;;;12.22;75.85
6132;BME280;3097;42.692;23.278;2023-02-28T14:05:01;95347.91;;;11.59;76.40
6132;BME280;3097;42.692;23.278;2023-02-28T14:07:43;95426.00;;;11.97;77.37
6132;BME280;3097;42.692;23.278;2023-02-28T14:10:22;95432.09;;;12.03;77.34
6132;BME280;3097;42.692;23.278;2023-02-28T14:18:01;95440.34;;;11.75;77.30
6132;BME280;3097;42.692;23.278;2023-02-28T14:20:32;95439.38;;;11.70;77.32
6132;BME280;3097;42.692;23.278;2023-02-28T14:28:56;95427.94;;;11.41;79.76
6132;BME280;3097;42.692;23.278;2023-02-28T14:31:43;95306.47;;;10.50;80.24
6132;BME280;3097;42.692;23.278;2023-02-28T14:36:48;95431.94;;;11.37;80.63
6132;BME280;3097;42.692;23.278;2023-02-28T14:39:16;95436.38;;;11.30;81.17
6132;BME280;3097;42.692;23.278;2023-02-28T14:41:43;95398.41;;;11.12;81.21
6132;BME280;3097;42.692;23.278;2023-02-28T14:44:27;95432.38;;;11.34;81.84
6132;BME280;3097;42.692;23.278;2023-02-28T14:46:55;95389.56;;;11.01;81.34
6132;BME280;3097;42.692;23.278;2023-02-28T14:49:27;95441.22;;;11.19;82.33
6132;BME280;3097;42.692;23.278;2023-02-28T14:52:13;95439.25;;;11.15;82.30
6132;BME280;3097;42.692;23.278;2023-02-28T14:54:41;95418.41;;;11.16;82.34
6132;BME280;3097;42.692;23.278;2023-02-28T14:57:21;95450.81;;;11.12;82.82
6132;BME280;3097;42.692;23.278;2023-02-28T14:59:57;95439.56;;;11.00;83.88
6132;BME280;3097;42.692;23.278;2023-02-28T15:02:24;95450.69;;;11.01;83.74
6132;BME280;3097;42.692;23.278;2023-02-28T15:05:02;95441.50;;;10.80;85.13
6132;BME280;3097;42.692;23.278;2023-02-28T15:07:36;95441.16;;;10.70;85.99
6132;BME280;3097;42.692;23.278;2023-02-28T15:12:40;95406.28;;;10.67;85.59
6132;BME280;3097;42.692;23.278;2023-02-28T15:15:13;95437.03;;;10.94;85.30
6132;BME280;3097;42.692;23.278;2023-02-28T15:17:39;95441.06;;;10.83;85.02
6132;BME280;3097;42.692;23.278;2023-02-28T15:20:05;95433.84;;;10.67;85.75
6132;BME280;3097;42.692;23.278;2023-02-28T15:22:37;95432.06;;;10.67;85.63
6132;BME280;3097;42.692;23.278;2023-02-28T15:25:04;95428.28;;;10.70;85.89
6132;BME280;3097;42.692;23.278;2023-02-28T15:27:32;95441.13;;;10.76;85.24
6132;BME280;3097;42.692;23.278;2023-02-28T15:30:00;95444.13;;;10.73;86.20
6132;BME280;3097;42.692;23.278;2023-02-28T15:32:35;95443.94;;;10.75;85.12
6132;BME280;3097;42.692;23.278;2023-02-28T15:35:19;95454.50;;;10.60;85.75
6132;BME280;3097;42.692;23.278;2023-02-28T15:40:40;95442.56;;;10.28;87.21
6132;BME280;3097;42.692;23.278;2023-02-28T15:45:50;95457.78;;;10.42;87.86
6132;BME280;3097;42.692;23.278;2023-02-28T15:50:44;95455.09;;;10.11;89.47
6132;BME280;3097;42.692;23.278;2023-02-28T15:53:17;95453.72;;;10.02;90.34
6132;BME280;3097;42.692;23.278;2023-02-28T15:55:44;95450.56;;;10.00;91.36